Time;durP1;ratioP1;P1;durP2;ratioP2;P2;SDS_P1;SDS_P2;PMS_P1;PMS_P2;Temp;Humidity;BMP_temperature;BMP_pressure;BME280_temperature;BME280_humidity;BME280_pressure;Samples;Min_cycle;Max_cycle;Signal;HPM_P1;HPM_P2
2022/09/03 00:01:59;;;;;;;7.20;5.50;;;;;;;;;;5121831;28;20251;-61
2022/09/03 00:04:30;;;;;;;7.60;5.27;;;;;;;;;;5122199;28;20270;-61
2022/09/03 00:07:02;;;;;;;6.57;5.30;;;;;;;;;;5122105;28;20259;-61
2022/09/03 00:09:32;;;;;;;9.13;6.00;;;;;;;;;;5121777;28;20630;-61
2022/09/03 00:12:04;;;;;;;9.90;6.40;;;;;;;;;;5121660;28;20201;-61
2022/09/03 00:14:34;;;;;;;8.40;5.57;;;;;;;;;;5121792;28;20265;-61
2022/09/03 00:17:05;;;;;;;8.60;5.63;;;;;;;;;;5121948;28;20236;-60
2022/09/03 00:19:34;;;;;;;9.87;7.17;;;;;;;;;;5121533;28;20208;-61
2022/09/03 00:22:09;;;;;;;7.23;5.60;;;;;;;;;;5121764;28;20267;-61
2022/09/03 00:24:39;;;;;;;7.07;5.67;;;;;;;;;;5117367;28;20232;-60
2022/09/03 00:27:10;;;;;;;8.80;5.40;;;;;;;;;;5100928;28;20205;-60
2022/09/03 00:29:41;;;;;;;7.37;5.43;;;;;;;;;;5120132;28;20198;-61
2022/09/03 00:32:13;;;;;;;8.03;5.60;;;;;;;;;;5108627;28;20202;-61
2022/09/03 00:34:43;;;;;;;6.13;5.37;;;;;;;;;;5101159;28;20226;-61
2022/09/03 00:37:12;;;;;;;9.77;5.80;;;;;;;;;;5101051;28;20206;-61
2022/09/03 00:39:42;;;;;;;9.10;5.50;;;;;;;;;;5101133;28;20207;-61
2022/09/03 00:42:20;;;;;;;6.67;5.53;;;;;;;;;;5100318;28;20624;-61
2022/09/03 00:45:03;;;;;;;6.73;6.00;;;;;;;;;;5100753;28;20225;-60
2022/09/03 00:47:39;;;;;;;7.30;5.77;;;;;;;;;;5119807;28;20209;-60
2022/09/03 00:50:10;;;;;;;6.90;6.20;;;;;;;;;;5121336;28;20236;-61
2022/09/03 00:52:45;;;;;;;9.27;6.27;;;;;;;;;;5120841;28;20699;-60
2022/09/03 00:55:16;;;;;;;9.53;6.40;;;;;;;;;;5120544;28;20251;-61
2022/09/03 00:57:50;;;;;;;7.20;5.80;;;;;;;;;;5120840;28;20627;-61
2022/09/03 01:00:20;;;;;;;8.43;5.30;;;;;;;;;;5120836;28;20207;-61
2022/09/03 01:02:54;;;;;;;8.13;5.87;;;;;;;;;;5120731;28;20645;-61
2022/09/03 01:05:29;;;;;;;6.73;5.37;;;;;;;;;;5120987;28;20210;-61
2022/09/03 01:08:04;;;;;;;9.57;6.13;;;;;;;;;;5120681;28;20257;-61
2022/09/03 01:10:38;;;;;;;7.70;5.40;;;;;;;;;;5120358;28;20256;-61
2022/09/03 01:13:09;;;;;;;10.73;6.60;;;;;;;;;;5120628;28;20663;-60
2022/09/03 01:15:45;;;;;;;8.13;6.27;;;;;;;;;;5120842;28;20257;-61
2022/09/03 01:18:20;;;;;;;8.90;6.43;;;;;;;;;;5120449;28;20202;-60
2022/09/03 01:20:53;;;;;;;10.33;7.10;;;;;;;;;;5120701;28;20207;-61
2022/09/03 01:23:36;;;;;;;12.07;6.87;;;;;;;;;;5120283;28;20671;-61
2022/09/03 01:26:11;;;;;;;11.83;6.60;;;;;;;;;;5104167;28;20293;-61
2022/09/03 01:28:45;;;;;;;8.60;6.37;;;;;;;;;;5110949;28;20314;-61
2022/09/03 01:31:19;;;;;;;12.23;6.90;;;;;;;;;;5115316;28;20233;-61
2022/09/03 01:33:50;;;;;;;8.73;6.17;;;;;;;;;;5099815;28;20227;-61
2022/09/03 01:36:23;;;;;;;8.07;5.97;;;;;;;;;;5106868;28;20204;-61
2022/09/03 01:38:53;;;;;;;9.40;6.27;;;;;;;;;;5120322;28;20253;-61
2022/09/03 01:44:31;;;;;;;13.23;7.63;;;;;;;;;;5057671;28;20284;-61
2022/09/03 01:47:07;;;;;;;12.37;6.57;;;;;;;;;;5106574;28;20730;-61
2022/09/03 01:49:40;;;;;;;11.03;7.00;;;;;;;;;;5120631;28;20203;-61
2022/09/03 01:52:11;;;;;;;9.90;7.40;;;;;;;;;;5119895;28;20233;-61
2022/09/03 01:54:50;;;;;;;7.47;6.40;;;;;;;;;;5119774;28;20564;-61
2022/09/03 01:57:27;;;;;;;10.13;7.10;;;;;;;;;;5119414;28;20618;-61
2022/09/03 02:00:07;;;;;;;12.33;7.40;;;;;;;;;;5119646;28;20207;-61
2022/09/03 02:02:35;;;;;;;12.27;7.73;;;;;;;;;;5119546;28;20260;-61
2022/09/03 02:05:06;;;;;;;9.33;7.43;;;;;;;;;;5119656;28;20236;-61
2022/09/03 02:07:35;;;;;;;12.53;9.10;;;;;;;;;;5119806;28;20200;-61
2022/09/03 02:10:05;;;;;;;11.97;8.10;;;;;;;;;;5119393;28;20207;-61
2022/09/03 02:12:34;;;;;;;8.27;7.20;;;;;;;;;;5119575;28;20227;-61
2022/09/03 02:15:03;;;;;;;8.93;7.57;;;;;;;;;;5119199;28;20236;-61
2022/09/03 02:17:33;;;;;;;9.43;8.23;;;;;;;;;;5119169;28;20262;-61
2022/09/03 02:20:03;;;;;;;9.73;7.53;;;;;;;;;;5119440;28;20242;-61
2022/09/03 02:22:32;;;;;;;8.70;7.23;;;;;;;;;;5119463;27;20208;-61
2022/09/03 02:25:00;;;;;;;8.40;7.17;;;;;;;;;;5112080;28;20266;-61
2022/09/03 02:27:28;;;;;;;9.87;7.40;;;;;;;;;;5099520;28;20522;-61
2022/09/03 02:29:57;;;;;;;11.03;6.93;;;;;;;;;;5119335;28;20200;-61
2022/09/03 02:32:25;;;;;;;9.70;7.17;;;;;;;;;;5103630;28;20284;-61
2022/09/03 02:34:55;;;;;;;9.70;6.63;;;;;;;;;;5098761;28;20282;-61
2022/09/03 02:37:23;;;;;;;11.40;7.37;;;;;;;;;;5098751;28;20245;-61
2022/09/03 02:39:51;;;;;;;9.80;7.33;;;;;;;;;;5098503;28;20254;-61
2022/09/03 02:42:19;;;;;;;10.33;7.20;;;;;;;;;;5098040;28;20205;-61
2022/09/03 02:44:51;;;;;;;9.43;7.23;;;;;;;;;;5098183;28;20668;-61
2022/09/03 02:47:19;;;;;;;9.67;7.50;;;;;;;;;;5113930;28;20215;-61
2022/09/03 02:49:47;;;;;;;10.67;7.27;;;;;;;;;;5106342;28;20239;-61
2022/09/03 02:52:17;;;;;;;8.63;7.20;;;;;;;;;;5117394;28;20651;-61
2022/09/03 02:54:45;;;;;;;9.30;8.07;;;;;;;;;;5118505;28;20220;-61
2022/09/03 02:57:14;;;;;;;11.33;6.87;;;;;;;;;;5118420;28;20232;-61
2022/09/03 02:59:44;;;;;;;9.67;7.43;;;;;;;;;;5118855;28;20208;-61
2022/09/03 03:02:13;;;;;;;11.27;7.70;;;;;;;;;;5118715;28;20240;-61
2022/09/03 03:04:41;;;;;;;10.63;7.50;;;;;;;;;;5118435;28;20240;-61
2022/09/03 03:07:09;;;;;;;10.33;7.33;;;;;;;;;;5118555;28;20238;-61
2022/09/03 03:09:38;;;;;;;10.87;8.30;;;;;;;;;;5118652;28;20243;-61
2022/09/03 03:12:07;;;;;;;8.90;7.97;;;;;;;;;;5117796;28;20239;-61
2022/09/03 03:14:35;;;;;;;11.63;7.73;;;;;;;;;;5118063;28;20564;-61
2022/09/03 03:17:03;;;;;;;9.57;8.07;;;;;;;;;;5117721;28;20257;-61
2022/09/03 03:19:31;;;;;;;10.47;7.57;;;;;;;;;;5116648;28;20210;-61
2022/09/03 03:21:59;;;;;;;10.80;8.23;;;;;;;;;;5116608;28;20201;-61
2022/09/03 03:24:27;;;;;;;9.13;8.03;;;;;;;;;;5101780;28;20264;-61
2022/09/03 03:26:58;;;;;;;11.77;7.87;;;;;;;;;;5095822;28;20208;-61
2022/09/03 03:29:26;;;;;;;10.60;7.70;;;;;;;;;;5113154;28;20252;-61
2022/09/03 03:31:54;;;;;;;10.93;7.83;;;;;;;;;;5105597;28;20201;-61
2022/09/03 03:34:22;;;;;;;10.67;8.00;;;;;;;;;;5096907;28;20277;-61
2022/09/03 03:36:50;;;;;;;10.97;8.43;;;;;;;;;;5098016;28;20237;-61
2022/09/03 03:39:18;;;;;;;10.40;8.53;;;;;;;;;;5097536;28;20623;-61
2022/09/03 03:41:46;;;;;;;11.57;9.03;;;;;;;;;;5097257;28;20675;-61
2022/09/03 03:44:16;;;;;;;11.00;8.80;;;;;;;;;;5097412;28;20231;-61
2022/09/03 03:46:44;;;;;;;8.80;7.73;;;;;;;;;;5110682;28;20218;-61
2022/09/03 03:49:12;;;;;;;11.27;7.97;;;;;;;;;;5118232;28;20237;-61
2022/09/03 03:51:40;;;;;;;9.80;7.83;;;;;;;;;;5118205;28;20210;-61
2022/09/03 03:54:08;;;;;;;12.73;8.70;;;;;;;;;;5117694;28;20317;-61
2022/09/03 03:56:38;;;;;;;10.33;7.87;;;;;;;;;;5117934;28;20210;-61
2022/09/03 03:59:05;;;;;;;11.73;8.80;;;;;;;;;;5118098;28;20274;-61
2022/09/03 04:01:35;;;;;;;12.23;9.33;;;;;;;;;;5118025;28;20211;-61
2022/09/03 04:04:04;;;;;;;13.07;8.70;;;;;;;;;;5117744;28;20752;-61
2022/09/03 04:06:32;;;;;;;12.20;8.70;;;;;;;;;;5117847;28;20238;-60
2022/09/03 04:09:00;;;;;;;10.90;9.03;;;;;;;;;;5117702;28;20205;-60
2022/09/03 04:11:28;;;;;;;9.47;8.37;;;;;;;;;;5117196;28;20206;-59
2022/09/03 04:13:56;;;;;;;19.07;8.63;;;;;;;;;;5117602;28;20225;-59
2022/09/03 04:16:25;;;;;;;13.70;8.87;;;;;;;;;;5114184;28;20270;-59
2022/09/03 04:18:55;;;;;;;12.33;9.20;;;;;;;;;;5097880;28;20201;-59
2022/09/03 04:21:24;;;;;;;12.03;8.37;;;;;;;;;;5097527;28;20221;-59
2022/09/03 04:23:55;;;;;;;13.53;7.80;;;;;;;;;;5107833;28;20235;-59
2022/09/03 04:26:24;;;;;;;12.40;8.30;;;;;;;;;;5117177;28;20213;-59
2022/09/03 04:28:52;;;;;;;12.83;9.07;;;;;;;;;;5117638;28;20552;-59
2022/09/03 04:31:21;;;;;;;11.97;8.57;;;;;;;;;;5111281;28;20231;-59
2022/09/03 04:33:50;;;;;;;11.50;7.63;;;;;;;;;;5097405;28;20230;-60
2022/09/03 04:36:20;;;;;;;10.53;7.00;;;;;;;;;;5097320;28;20207;-59
2022/09/03 04:38:49;;;;;;;11.60;7.50;;;;;;;;;;5097090;28;20620;-59
2022/09/03 04:41:18;;;;;;;10.73;6.97;;;;;;;;;;5097945;28;20210;-59
2022/09/03 04:43:47;;;;;;;9.03;6.97;;;;;;;;;;5100870;28;20231;-59
2022/09/03 04:46:19;;;;;;;11.90;6.90;;;;;;;;;;5110597;28;20212;-59
2022/09/03 04:48:49;;;;;;;8.23;7.10;;;;;;;;;;5121011;28;20232;-60
2022/09/03 04:51:17;;;;;;;9.37;6.47;;;;;;;;;;5121147;28;20234;-59
2022/09/03 04:53:48;;;;;;;7.60;6.10;;;;;;;;;;5120674;28;20283;-59
2022/09/03 04:56:17;;;;;;;11.37;7.07;;;;;;;;;;5120885;28;20238;-59
2022/09/03 04:58:46;;;;;;;6.67;5.97;;;;;;;;;;5120896;28;20203;-59
2022/09/03 05:01:18;;;;;;;7.33;5.83;;;;;;;;;;5118880;28;20285;-59
2022/09/03 05:03:46;;;;;;;8.43;5.50;;;;;;;;;;5118837;27;20694;-59
2022/09/03 05:06:16;;;;;;;6.80;6.07;;;;;;;;;;5120820;28;20269;-59
2022/09/03 05:08:44;;;;;;;8.20;5.80;;;;;;;;;;5120905;27;20213;-59
2022/09/03 05:11:16;;;;;;;9.03;5.70;;;;;;;;;;5120549;28;20616;-59
2022/09/03 05:13:48;;;;;;;6.90;5.93;;;;;;;;;;5114511;28;20551;-59
2022/09/03 05:16:16;;;;;;;8.87;5.73;;;;;;;;;;5100115;28;20200;-59
2022/09/03 05:18:45;;;;;;;7.33;5.80;;;;;;;;;;5100152;28;20237;-60
2022/09/03 05:21:14;;;;;;;6.67;5.77;;;;;;;;;;5100080;28;20257;-59
2022/09/03 05:23:43;;;;;;;9.33;6.30;;;;;;;;;;5109923;28;20342;-60
2022/09/03 05:26:12;;;;;;;7.00;5.90;;;;;;;;;;5115850;28;20223;-59
2022/09/03 05:28:42;;;;;;;11.03;5.87;;;;;;;;;;5117127;28;20202;-61
2022/09/03 05:31:14;;;;;;;7.00;5.67;;;;;;;;;;5118321;28;20206;-61
2022/09/03 05:33:44;;;;;;;6.90;5.90;;;;;;;;;;5115330;28;20222;-59
2022/09/03 05:36:13;;;;;;;10.17;6.70;;;;;;;;;;5116073;28;20229;-59
2022/09/03 05:38:41;;;;;;;8.97;6.13;;;;;;;;;;5117476;28;20199;-59
2022/09/03 05:41:13;;;;;;;7.30;6.60;;;;;;;;;;5114988;28;20239;-61
2022/09/03 05:43:42;;;;;;;9.83;5.80;;;;;;;;;;5112583;28;20220;-59
2022/09/03 05:46:12;;;;;;;8.50;5.50;;;;;;;;;;5116233;28;20272;-58
2022/09/03 05:48:43;;;;;;;7.80;6.30;;;;;;;;;;5116738;28;20205;-60
2022/09/03 05:51:12;;;;;;;10.83;6.30;;;;;;;;;;5118434;28;20201;-61
2022/09/03 05:53:40;;;;;;;7.30;6.43;;;;;;;;;;5114287;28;20250;-59
2022/09/03 05:56:10;;;;;;;9.13;5.87;;;;;;;;;;5117466;28;20199;-60
2022/09/03 05:58:42;;;;;;;8.87;6.23;;;;;;;;;;5115801;28;20203;-60
2022/09/03 06:01:13;;;;;;;8.03;6.33;;;;;;;;;;5109637;28;20200;-59
2022/09/03 06:03:41;;;;;;;9.80;6.43;;;;;;;;;;5103477;28;20687;-59
2022/09/03 06:06:09;;;;;;;8.67;6.60;;;;;;;;;;5119925;28;20224;-59
2022/09/03 06:08:37;;;;;;;12.40;6.50;;;;;;;;;;5119424;28;20279;-59
2022/09/03 06:11:06;;;;;;;7.83;6.20;;;;;;;;;;5119030;28;20215;-59
2022/09/03 06:13:34;;;;;;;8.67;6.70;;;;;;;;;;5119297;27;20663;-59
2022/09/03 06:16:03;;;;;;;9.80;6.80;;;;;;;;;;5119384;27;20675;-59
2022/09/03 06:18:33;;;;;;;10.37;6.57;;;;;;;;;;5119634;28;20207;-59
2022/09/03 06:21:02;;;;;;;9.03;7.20;;;;;;;;;;5119562;28;20234;-60
2022/09/03 06:23:30;;;;;;;9.83;7.43;;;;;;;;;;5119240;28;20260;-61
2022/09/03 06:26:02;;;;;;;10.93;6.83;;;;;;;;;;5104136;28;20236;-61
2022/09/03 06:28:33;;;;;;;13.63;8.60;;;;;;;;;;5099148;28;20294;-58
2022/09/03 06:31:02;;;;;;;12.67;7.67;;;;;;;;;;5114877;28;20233;-58
2022/09/03 06:33:30;;;;;;;8.33;7.30;;;;;;;;;;5119205;28;20256;-58
2022/09/03 06:36:00;;;;;;;10.40;7.10;;;;;;;;;;5118877;27;20201;-58
2022/09/03 06:38:34;;;;;;;8.33;7.23;;;;;;;;;;5119004;28;20218;-58
2022/09/03 06:41:04;;;;;;;9.30;7.33;;;;;;;;;;5118403;28;20209;-59
2022/09/03 06:43:32;;;;;;;12.57;7.20;;;;;;;;;;5118709;28;20695;-58
2022/09/03 06:46:02;;;;;;;11.33;7.57;;;;;;;;;;5118477;28;20657;-59
2022/09/03 06:48:31;;;;;;;9.93;6.60;;;;;;;;;;5118984;28;20201;-58
2022/09/03 06:51:01;;;;;;;10.23;6.90;;;;;;;;;;5111023;28;20206;-59
2022/09/03 06:53:30;;;;;;;10.17;6.97;;;;;;;;;;5115829;28;20692;-59
2022/09/03 06:56:00;;;;;;;13.20;6.57;;;;;;;;;;5118197;28;20247;-59
2022/09/03 06:58:29;;;;;;;8.90;6.80;;;;;;;;;;5103140;28;20672;-59
2022/09/03 07:01:01;;;;;;;11.43;7.07;;;;;;;;;;5100085;28;20219;-58
2022/09/03 07:03:30;;;;;;;9.73;6.63;;;;;;;;;;5118187;28;20308;-58
2022/09/03 07:06:02;;;;;;;8.83;6.77;;;;;;;;;;5118161;28;20256;-58
2022/09/03 07:08:31;;;;;;;9.10;6.87;;;;;;;;;;5118312;28;20202;-58
2022/09/03 07:11:00;;;;;;;10.83;7.63;;;;;;;;;;5118301;28;20208;-58
2022/09/03 07:13:28;;;;;;;8.87;6.83;;;;;;;;;;5118269;28;20221;-59
2022/09/03 07:16:00;;;;;;;8.90;6.90;;;;;;;;;;5118569;28;20276;-59
2022/09/03 07:18:28;;;;;;;8.20;6.33;;;;;;;;;;5118405;28;20215;-59
2022/09/03 07:21:00;;;;;;;8.40;6.50;;;;;;;;;;5118604;28;20235;-59
2022/09/03 07:23:30;;;;;;;7.33;6.10;;;;;;;;;;5116720;28;20224;-59
2022/09/03 07:25:58;;;;;;;7.43;5.73;;;;;;;;;;5115654;28;20684;-59
2022/09/03 07:28:27;;;;;;;6.27;5.67;;;;;;;;;;5118053;28;20602;-61
2022/09/03 07:31:00;;;;;;;10.07;5.23;;;;;;;;;;5112455;28;20227;-59
2022/09/03 07:33:28;;;;;;;7.57;5.93;;;;;;;;;;5100112;28;20220;-61
2022/09/03 07:36:05;;;;;;;9.17;5.20;;;;;;;;;;5101497;28;20261;-59
2022/09/03 07:38:34;;;;;;;5.37;4.37;;;;;;;;;;5099810;28;20220;-59
2022/09/03 07:41:03;;;;;;;5.87;4.57;;;;;;;;;;5102392;28;20657;-59
2022/09/03 07:43:34;;;;;;;7.07;4.60;;;;;;;;;;5108753;28;20265;-59
2022/09/03 07:46:02;;;;;;;5.03;4.53;;;;;;;;;;5113597;28;20243;-59
2022/09/03 07:48:31;;;;;;;6.67;4.90;;;;;;;;;;5109475;28;20212;-60
2022/09/03 07:51:04;;;;;;;8.47;4.67;;;;;;;;;;5111383;28;20206;-61
2022/09/03 07:53:32;;;;;;;5.13;4.60;;;;;;;;;;5111078;28;20249;-61
2022/09/03 07:56:06;;;;;;;6.10;4.50;;;;;;;;;;5117696;28;20212;-62
2022/09/03 07:58:34;;;;;;;6.30;4.40;;;;;;;;;;5118103;28;20218;-62
2022/09/03 08:01:04;;;;;;;8.93;5.10;;;;;;;;;;5115258;28;20576;-61
2022/09/03 08:03:33;;;;;;;7.60;5.27;;;;;;;;;;5121992;28;20219;-61
2022/09/03 08:06:03;;;;;;;6.07;4.90;;;;;;;;;;5125410;27;20225;-61
2022/09/03 08:08:32;;;;;;;6.60;4.50;;;;;;;;;;5120192;28;20225;-61
2022/09/03 08:11:09;;;;;;;6.27;4.77;;;;;;;;;;5126416;27;20284;-61
2022/09/03 08:13:39;;;;;;;5.47;4.97;;;;;;;;;;5127083;27;20283;-62
2022/09/03 08:16:08;;;;;;;5.10;4.60;;;;;;;;;;5122902;28;20231;-60
2022/09/03 08:18:37;;;;;;;6.37;4.47;;;;;;;;;;5124711;27;20208;-60
2022/09/03 08:21:07;;;;;;;5.57;4.30;;;;;;;;;;5131611;27;20732;-60
2022/09/03 08:23:37;;;;;;;4.37;3.53;;;;;;;;;;5126006;27;20266;-60
2022/09/03 08:26:05;;;;;;;6.20;3.97;;;;;;;;;;5120937;28;20222;-61
2022/09/03 08:28:36;;;;;;;4.30;4.00;;;;;;;;;;5131919;27;20205;-60
2022/09/03 08:31:08;;;;;;;6.90;4.33;;;;;;;;;;5124701;27;20233;-60
2022/09/03 08:33:37;;;;;;;4.30;3.90;;;;;;;;;;5124084;27;20225;-60
2022/09/03 08:36:06;;;;;;;5.30;4.23;;;;;;;;;;5122630;27;20682;-60
2022/09/03 08:38:35;;;;;;;5.60;3.83;;;;;;;;;;5127463;27;20224;-60
2022/09/03 08:41:04;;;;;;;5.17;4.20;;;;;;;;;;5124030;27;20196;-60
2022/09/03 08:43:40;;;;;;;4.97;4.20;;;;;;;;;;5129141;27;20268;-60
2022/09/03 08:46:10;;;;;;;4.60;4.20;;;;;;;;;;5128055;27;20687;-60
2022/09/03 08:48:39;;;;;;;6.33;4.20;;;;;;;;;;5129229;27;20278;-60
2022/09/03 08:51:08;;;;;;;7.63;3.73;;;;;;;;;;5124266;27;20234;-60
2022/09/03 08:53:41;;;;;;;6.77;4.50;;;;;;;;;;5112473;27;20286;-60
2022/09/03 08:56:11;;;;;;;3.63;3.33;;;;;;;;;;5120849;28;20206;-60
2022/09/03 08:58:42;;;;;;;6.57;4.10;;;;;;;;;;5114431;28;20211;-61
2022/09/03 09:01:16;;;;;;;4.43;4.03;;;;;;;;;;5121030;28;20256;-60
2022/09/03 09:03:49;;;;;;;4.47;3.90;;;;;;;;;;5105599;28;20230;-60
2022/09/03 09:06:21;;;;;;;6.07;4.30;;;;;;;;;;5119821;28;20211;-60
2022/09/03 09:08:56;;;;;;;6.40;3.73;;;;;;;;;;5117402;28;20687;-60
2022/09/03 09:11:30;;;;;;;4.47;3.77;;;;;;;;;;5114740;28;20677;-60
2022/09/03 09:14:01;;;;;;;4.40;4.00;;;;;;;;;;5120390;28;20765;-60
2022/09/03 09:16:38;;;;;;;4.60;4.00;;;;;;;;;;5113335;28;20664;-60
2022/09/03 09:19:17;;;;;;;7.03;4.20;;;;;;;;;;5120555;28;20200;-60
2022/09/03 09:21:48;;;;;;;5.37;4.53;;;;;;;;;;5120344;28;20610;-60
2022/09/03 09:24:22;;;;;;;8.23;4.37;;;;;;;;;;5119474;28;20236;-60
2022/09/03 09:26:51;;;;;;;6.97;4.83;;;;;;;;;;5099443;28;20230;-60
2022/09/03 09:29:20;;;;;;;6.83;4.10;;;;;;;;;;5101416;28;20212;-60
2022/09/03 09:31:50;;;;;;;8.77;4.70;;;;;;;;;;5120082;28;20209;-60
2022/09/03 09:34:18;;;;;;;5.03;4.37;;;;;;;;;;5104308;28;20229;-60
2022/09/03 09:36:48;;;;;;;6.83;4.27;;;;;;;;;;5118386;28;20201;-60
2022/09/03 09:39:18;;;;;;;4.73;4.23;;;;;;;;;;5118838;28;20215;-60
2022/09/03 09:41:57;;;;;;;5.70;4.10;;;;;;;;;;5118873;28;20231;-60
2022/09/03 09:44:26;;;;;;;5.93;4.13;;;;;;;;;;5119511;28;20231;-60
2022/09/03 09:47:12;;;;;;;5.43;3.80;;;;;;;;;;5117436;28;20217;-60
2022/09/03 09:49:52;;;;;;;4.50;3.90;;;;;;;;;;5116430;28;20213;-60
2022/09/03 09:52:24;;;;;;;10.03;5.60;;;;;;;;;;5119998;27;20233;-64
2022/09/03 09:54:53;;;;;;;4.30;3.70;;;;;;;;;;5110978;27;20226;-64
2022/09/03 09:57:22;;;;;;;6.70;3.80;;;;;;;;;;5106149;28;20210;-63
2022/09/03 09:59:50;;;;;;;4.20;3.43;;;;;;;;;;5119545;28;20202;-64
2022/09/03 10:02:25;;;;;;;5.87;3.47;;;;;;;;;;5107000;28;20267;-63
2022/09/03 10:04:56;;;;;;;4.20;3.80;;;;;;;;;;5119809;28;20279;-63
2022/09/03 10:07:26;;;;;;;6.07;3.60;;;;;;;;;;5119964;27;20257;-63
2022/09/03 10:10:01;;;;;;;8.60;4.07;;;;;;;;;;5119381;28;20238;-63
2022/09/03 10:12:33;;;;;;;5.70;3.20;;;;;;;;;;5119589;28;20207;-63
2022/09/03 10:15:05;;;;;;;6.83;3.90;;;;;;;;;;5119165;28;20273;-63
2022/09/03 10:17:42;;;;;;;8.67;3.90;;;;;;;;;;5119664;27;20211;-63
2022/09/03 10:20:30;;;;;;;8.83;3.53;;;;;;;;;;5119501;28;20233;-63
2022/09/03 10:23:02;;;;;;;4.10;3.10;;;;;;;;;;5119044;28;20852;-63
2022/09/03 10:25:34;;;;;;;5.77;3.23;;;;;;;;;;5108344;28;20206;-63
2022/09/03 10:28:02;;;;;;;5.37;2.90;;;;;;;;;;5098828;28;20233;-62
2022/09/03 10:30:38;;;;;;;4.87;2.80;;;;;;;;;;5106221;28;20218;-63
2022/09/03 10:33:11;;;;;;;3.30;3.00;;;;;;;;;;5118888;28;20204;-63
2022/09/03 10:35:44;;;;;;;4.43;2.60;;;;;;;;;;5119288;28;20214;-63
2022/09/03 10:38:16;;;;;;;3.10;2.80;;;;;;;;;;5119264;28;20240;-64
2022/09/03 10:40:51;;;;;;;4.63;3.40;;;;;;;;;;5117806;28;20274;-63
2022/09/03 10:43:34;;;;;;;3.27;2.80;;;;;;;;;;5118825;28;20263;-63
2022/09/03 10:46:05;;;;;;;4.47;2.97;;;;;;;;;;5118683;28;20200;-64
2022/09/03 10:48:42;;;;;;;3.43;2.70;;;;;;;;;;5118680;28;20654;-63
2022/09/03 10:51:15;;;;;;;3.63;2.70;;;;;;;;;;5119341;28;20233;-63
2022/09/03 10:53:58;;;;;;;3.27;2.47;;;;;;;;;;5118624;28;20287;-63
2022/09/03 10:56:32;;;;;;;2.83;2.63;;;;;;;;;;5118467;28;20203;-63
2022/09/03 10:59:07;;;;;;;3.37;2.67;;;;;;;;;;5118461;28;20276;-63
2022/09/03 11:01:40;;;;;;;2.70;2.50;;;;;;;;;;5118511;28;20245;-65
2022/09/03 11:04:15;;;;;;;2.63;2.37;;;;;;;;;;5118604;28;20234;-64
2022/09/03 11:06:48;;;;;;;3.03;2.70;;;;;;;;;;5118493;28;20231;-65
2022/09/03 11:09:20;;;;;;;2.40;2.20;;;;;;;;;;5118314;28;20731;-63
2022/09/03 11:11:51;;;;;;;2.53;2.17;;;;;;;;;;5117884;28;20200;-63
2022/09/03 11:14:26;;;;;;;2.23;2.13;;;;;;;;;;5118189;28;20244;-64
2022/09/03 11:16:54;;;;;;;3.07;2.67;;;;;;;;;;5118193;28;20208;-63
2022/09/03 11:19:26;;;;;;;4.50;2.60;;;;;;;;;;5118496;28;20254;-62
2022/09/03 11:21:56;;;;;;;2.70;2.50;;;;;;;;;;5118541;28;20204;-62
2022/09/03 11:24:26;;;;;;;3.33;2.80;;;;;;;;;;5117165;28;20258;-63
2022/09/03 11:26:58;;;;;;;3.63;2.30;;;;;;;;;;5097511;28;20257;-62
2022/09/03 11:29:30;;;;;;;2.53;2.10;;;;;;;;;;5108909;28;20759;-63
2022/09/03 11:32:01;;;;;;;5.03;2.70;;;;;;;;;;5116965;28;20200;-63
2022/09/03 11:34:31;;;;;;;3.57;2.63;;;;;;;;;;5113714;28;20600;-63
2022/09/03 11:37:16;;;;;;;2.47;2.27;;;;;;;;;;5117692;28;20197;-63
2022/09/03 11:39:45;;;;;;;4.77;2.77;;;;;;;;;;5109681;28;20199;-63
2022/09/03 11:42:21;;;;;;;3.10;2.57;;;;;;;;;;5097350;28;20291;-64
2022/09/03 11:44:51;;;;;;;3.53;2.43;;;;;;;;;;5097469;28;20264;-64
2022/09/03 11:47:22;;;;;;;2.40;2.20;;;;;;;;;;5114893;28;20626;-64
2022/09/03 11:49:51;;;;;;;4.77;3.00;;;;;;;;;;5110545;28;20221;-64
2022/09/03 11:52:28;;;;;;;6.80;3.97;;;;;;;;;;5109001;28;20201;-65
2022/09/03 11:54:56;;;;;;;7.80;3.90;;;;;;;;;;5122064;27;20288;-63
2022/09/03 11:57:27;;;;;;;7.23;4.43;;;;;;;;;;5128379;27;20198;-63
2022/09/03 12:00:08;;;;;;;5.97;4.07;;;;;;;;;;5130082;27;20240;-63
2022/09/03 12:02:37;;;;;;;5.33;4.00;;;;;;;;;;5131173;27;20204;-64
2022/09/03 12:05:14;;;;;;;7.80;4.27;;;;;;;;;;5110853;27;20275;-65
2022/09/03 12:07:49;;;;;;;7.53;3.80;;;;;;;;;;5126693;27;20234;-64
2022/09/03 12:10:23;;;;;;;4.33;3.60;;;;;;;;;;5127230;27;20325;-64
2022/09/03 12:13:12;;;;;;;3.17;2.97;;;;;;;;;;5124618;27;20249;-64
2022/09/03 12:15:58;;;;;;;3.77;3.10;;;;;;;;;;5126832;27;20786;-64
2022/09/03 12:18:29;;;;;;;3.23;2.73;;;;;;;;;;5130791;27;20635;-64
2022/09/03 12:21:01;;;;;;;3.83;2.90;;;;;;;;;;5128821;27;20242;-64
2022/09/03 12:23:32;;;;;;;4.63;2.90;;;;;;;;;;5127353;27;20216;-64
2022/09/03 12:26:02;;;;;;;4.00;3.53;;;;;;;;;;5115784;28;20213;-64
2022/09/03 12:28:32;;;;;;;4.80;3.80;;;;;;;;;;5121254;28;20224;-64
2022/09/03 12:31:07;;;;;;;4.07;3.20;;;;;;;;;;5105687;28;20205;-64
2022/09/03 12:33:41;;;;;;;3.80;3.00;;;;;;;;;;5101205;28;20270;-64
2022/09/03 12:36:09;;;;;;;2.83;2.63;;;;;;;;;;5101048;28;20242;-64
2022/09/03 12:38:39;;;;;;;3.60;3.13;;;;;;;;;;5101093;28;20201;-64
2022/09/03 12:41:29;;;;;;;3.83;3.40;;;;;;;;;;5118713;28;20208;-64
2022/09/03 12:43:59;;;;;;;2.80;2.60;;;;;;;;;;5118648;27;20217;-64
2022/09/03 12:46:28;;;;;;;4.20;2.80;;;;;;;;;;5120966;28;20259;-64
2022/09/03 12:49:04;;;;;;;2.87;2.67;;;;;;;;;;5120922;28;20223;-64
2022/09/03 12:51:58;;;;;;;3.67;2.83;;;;;;;;;;5120896;28;20296;-64
2022/09/03 12:54:34;;;;;;;2.90;2.60;;;;;;;;;;5120998;28;20320;-64
2022/09/03 12:57:02;;;;;;;2.80;2.60;;;;;;;;;;5125582;27;20271;-64
2022/09/03 12:59:33;;;;;;;3.87;2.60;;;;;;;;;;5131496;27;20245;-63
2022/09/03 13:02:06;;;;;;;11.53;5.70;;;;;;;;;;5105357;27;20197;-64
2022/09/03 13:04:35;;;;;;;3.57;2.70;;;;;;;;;;5111876;28;20264;-63
2022/09/03 13:07:05;;;;;;;4.00;2.73;;;;;;;;;;5108563;27;20204;-65
2022/09/03 13:09:36;;;;;;;3.00;2.73;;;;;;;;;;5120485;28;20659;-65
2022/09/03 13:12:04;;;;;;;3.33;2.97;;;;;;;;;;5120550;28;20210;-67
2022/09/03 13:14:42;;;;;;;3.53;2.50;;;;;;;;;;5125661;27;20755;-67
2022/09/03 13:17:34;;;;;;;5.83;2.57;;;;;;;;;;5129232;27;20212;-66
2022/09/03 13:20:15;;;;;;;4.00;3.03;;;;;;;;;;5122289;27;20660;-66
2022/09/03 13:22:50;;;;;;;2.67;2.47;;;;;;;;;;5125595;27;20572;-67
2022/09/03 13:25:25;;;;;;;4.13;2.93;;;;;;;;;;5130926;27;20192;-67
2022/09/03 13:27:57;;;;;;;4.27;3.07;;;;;;;;;;5130281;27;20214;-67
2022/09/03 13:30:31;;;;;;;4.33;3.33;;;;;;;;;;5127348;27;20271;-67
2022/09/03 13:33:01;;;;;;;8.97;3.50;;;;;;;;;;5125931;27;20546;-67
2022/09/03 13:35:33;;;;;;;7.37;3.40;;;;;;;;;;5124176;27;20614;-67
2022/09/03 13:38:07;;;;;;;6.47;4.80;;;;;;;;;;5129496;27;20204;-67
2022/09/03 13:40:41;;;;;;;5.33;3.57;;;;;;;;;;5126650;27;20242;-67
2022/09/03 13:43:21;;;;;;;4.33;3.50;;;;;;;;;;5112271;27;20235;-67
2022/09/03 13:45:54;;;;;;;2.83;2.50;;;;;;;;;;5124466;27;20192;-67
2022/09/03 13:51:13;;;;;;;8.93;4.37;;;;;;;;;;5108130;28;20242;-67
2022/09/03 13:53:50;;;;;;;6.07;3.10;;;;;;;;;;5119646;27;20294;-67
2022/09/03 13:56:34;;;;;;;5.73;3.47;;;;;;;;;;5119565;27;20201;-68
2022/09/03 13:59:07;;;;;;;10.30;3.33;;;;;;;;;;5119875;28;20238;-67
2022/09/03 14:01:44;;;;;;;5.93;3.13;;;;;;;;;;5119807;28;20205;-70
2022/09/03 14:04:17;;;;;;;5.97;3.20;;;;;;;;;;5119259;28;20238;-72
2022/09/03 14:06:49;;;;;;;6.23;2.87;;;;;;;;;;5118639;28;20594;-72
2022/09/03 14:09:25;;;;;;;3.57;1.77;;;;;;;;;;5117729;28;20222;-72
2022/09/03 14:11:58;;;;;;;4.03;1.90;;;;;;;;;;5117204;28;20257;-73
2022/09/03 14:14:36;;;;;;;3.90;2.40;;;;;;;;;;5116744;28;20282;-74
2022/09/03 14:17:11;;;;;;;2.50;1.93;;;;;;;;;;5117720;27;20202;-74
2022/09/03 14:19:43;;;;;;;3.47;2.10;;;;;;;;;;5117588;28;20236;-73
2022/09/03 14:22:14;;;;;;;6.47;2.80;;;;;;;;;;5118099;28;20208;-74
2022/09/03 14:24:47;;;;;;;2.57;2.27;;;;;;;;;;5114903;28;20227;-73
2022/09/03 14:27:24;;;;;;;4.07;2.37;;;;;;;;;;5098827;28;20220;-73
2022/09/03 14:29:53;;;;;;;4.17;2.27;;;;;;;;;;5105341;28;20235;-73
2022/09/03 14:32:28;;;;;;;6.60;2.63;;;;;;;;;;5104988;28;20212;-73
2022/09/03 14:35:00;;;;;;;4.37;2.37;;;;;;;;;;5098959;28;20229;-72
2022/09/03 14:37:37;;;;;;;3.70;2.40;;;;;;;;;;5098666;28;20255;-73
2022/09/03 14:40:12;;;;;;;2.73;2.53;;;;;;;;;;5098391;28;20691;-72
2022/09/03 14:42:48;;;;;;;3.50;2.70;;;;;;;;;;5098790;28;20205;-71
2022/09/03 14:45:22;;;;;;;3.37;2.40;;;;;;;;;;5098518;28;20213;-72
2022/09/03 14:48:01;;;;;;;5.73;2.70;;;;;;;;;;5106069;28;20209;-70
2022/09/03 14:50:37;;;;;;;2.73;2.53;;;;;;;;;;5119152;28;20263;-69
2022/09/03 14:53:11;;;;;;;3.10;2.67;;;;;;;;;;5118690;27;20243;-69
2022/09/03 14:55:48;;;;;;;5.67;3.13;;;;;;;;;;5118397;28;20240;-69
2022/09/03 14:58:34;;;;;;;3.60;3.10;;;;;;;;;;5118704;28;20238;-68
2022/09/03 15:01:05;;;;;;;4.47;2.73;;;;;;;;;;5118884;28;20204;-68
2022/09/03 15:03:46;;;;;;;5.80;2.93;;;;;;;;;;5118430;28;20649;-68
2022/09/03 15:06:18;;;;;;;5.53;3.03;;;;;;;;;;5118568;28;20240;-68
2022/09/03 15:09:07;;;;;;;2.80;2.50;;;;;;;;;;5118812;28;20213;-70
2022/09/03 15:11:44;;;;;;;5.10;3.10;;;;;;;;;;5117919;28;20229;-67
2022/09/03 15:14:14;;;;;;;3.97;2.70;;;;;;;;;;5118646;28;20261;-69